CheckWX is a tool to help pilots better visualize weather data.  It is not intended as a substitute for an official pre-flight weather briefing.

16:21:15 UTC

KRWL TAF
Rawlins Municipal / Harvey Field Airport
Rawlins, Wyoming, USA
KRWL 251510Z 2515/2612 23010G17KT P6SM FEW050 FM251700 24017G27KT P6SM SCT015 BKN250 FM252100 27022G35KT P6SM FEW250 FM260200 24017G27KT P6SM BKN050

Jan-25@
15:00 UTC

Jan-25 @ 15:00 UTC

Jan-25@
17:00 UTC

Jan-25 @ 17:00 UTC

KRWL 251510Z 2515/2612 23010G17KT P6SM FEW050
Wind
  • 230° at 10 KTS
  • {Gusting to 17 KTS
Cloud Levels
  • Few at 5,000' AGL

Jan-25@
17:00 UTC

Jan-25 @ 17:00 UTC

Jan-25@
21:00 UTC

Jan-25 @ 21:00 UTC

FM251700 24017G27KT P6SM SCT015 BKN250

From

From Standard forecast or significant change

Wind
  • 240° at 17 KTS
  • {Gusting to 27 KTS
Cloud Levels
  • Scattered at 1,500' AGL
  • Broken at 25,000' AGL

Jan-25@
21:00 UTC

Jan-25 @ 21:00 UTC

Jan-26@
02:00 UTC

Jan-26 @ 02:00 UTC

FM252100 27022G35KT P6SM FEW250

From

From Standard forecast or significant change

Wind
  • 270° at 22 KTS
  • {Gusting to 35 KTS
Cloud Levels
  • Few at 25,000' AGL

Jan-26@
02:00 UTC

Jan-26 @ 02:00 UTC

Jan-26@
12:00 UTC

Jan-26 @ 12:00 UTC

FM260200 24017G27KT P6SM BKN050

From

From Standard forecast or significant change

Wind
  • 240° at 17 KTS
  • {Gusting to 27 KTS
Cloud Levels
  • Broken at 5,000' AGL